sensor_id;sensor_type;location;lat;lon;timestamp;temperature;humidity
52543;DHT22;38449;52.696;6.186;2024-03-02T00:00:26;8.30;99.90
52543;DHT22;38449;52.696;6.186;2024-03-02T00:02:53;8.30;99.90
52543;DHT22;38449;52.696;6.186;2024-03-02T00:05:21;8.30;99.90
52543;DHT22;38449;52.696;6.186;2024-03-02T00:07:55;8.30;99.90
52543;DHT22;38449;52.696;6.186;2024-03-02T00:10:25;8.30;99.90
52543;DHT22;38449;52.696;6.186;2024-03-02T00:12:58;8.20;99.90
52543;DHT22;38449;52.696;6.186;2024-03-02T00:15:41;8.20;99.90
52543;DHT22;38449;52.696;6.186;2024-03-02T00:18:11;8.20;99.90
52543;DHT22;38449;52.696;6.186;2024-03-02T00:20:39;8.10;99.90
52543;DHT22;38449;52.696;6.186;2024-03-02T00:23:07;8.20;99.90
52543;DHT22;38449;52.696;6.186;2024-03-02T00:25:46;8.20;99.90
52543;DHT22;38449;52.696;6.186;2024-03-02T00:28:20;8.20;99.90
52543;DHT22;38449;52.696;6.186;2024-03-02T00:33:16;8.10;99.90
52543;DHT22;38449;52.696;6.186;2024-03-02T00:35:44;8.10;99.90
52543;DHT22;38449;52.696;6.186;2024-03-02T00:38:11;8.10;99.90
52543;DHT22;38449;52.696;6.186;2024-03-02T00:40:38;8.20;99.90
52543;DHT22;38449;52.696;6.186;2024-03-02T00:43:04;8.10;99.90
52543;DHT22;38449;52.696;6.186;2024-03-02T00:45:31;8.20;99.90
52543;DHT22;38449;52.696;6.186;2024-03-02T00:47:58;8.10;99.90
52543;DHT22;38449;52.696;6.186;2024-03-02T00:50:24;8.10;99.90
52543;DHT22;38449;52.696;6.186;2024-03-02T00:52:50;8.10;99.90
52543;DHT22;38449;52.696;6.186;2024-03-02T00:55:17;8.10;99.90
52543;DHT22;38449;52.696;6.186;2024-03-02T00:57:44;8.10;99.90
52543;DHT22;38449;52.696;6.186;2024-03-02T01:00:11;8.10;99.90
52543;DHT22;38449;52.696;6.186;2024-03-02T01:02:41;8.10;99.90
52543;DHT22;38449;52.696;6.186;2024-03-02T01:05:13;8.10;99.90
52543;DHT22;38449;52.696;6.186;2024-03-02T01:07:40;8.10;99.90
52543;DHT22;38449;52.696;6.186;2024-03-02T01:10:06;8.10;99.90
52543;DHT22;38449;52.696;6.186;2024-03-02T01:12:32;8.20;99.90
52543;DHT22;38449;52.696;6.186;2024-03-02T01:14:59;8.20;99.90
52543;DHT22;38449;52.696;6.186;2024-03-02T01:17:25;8.30;99.90
52543;DHT22;38449;52.696;6.186;2024-03-02T01:19:51;8.30;99.90
52543;DHT22;38449;52.696;6.186;2024-03-02T01:22:18;8.30;99.90
52543;DHT22;38449;52.696;6.186;2024-03-02T01:24:49;8.30;99.90
52543;DHT22;38449;52.696;6.186;2024-03-02T01:27:16;8.30;99.90
52543;DHT22;38449;52.696;6.186;2024-03-02T01:29:42;8.30;99.90
52543;DHT22;38449;52.696;6.186;2024-03-02T01:32:08;8.40;99.90
52543;DHT22;38449;52.696;6.186;2024-03-02T01:34:35;8.40;99.90
52543;DHT22;38449;52.696;6.186;2024-03-02T01:37:01;8.50;99.90
52543;DHT22;38449;52.696;6.186;2024-03-02T01:39:27;8.40;99.90
52543;DHT22;38449;52.696;6.186;2024-03-02T01:41:54;8.40;99.90
52543;DHT22;38449;52.696;6.186;2024-03-02T01:44:20;8.40;99.90
52543;DHT22;38449;52.696;6.186;2024-03-02T01:46:46;8.50;99.90
52543;DHT22;38449;52.696;6.186;2024-03-02T01:49:13;8.50;99.90
52543;DHT22;38449;52.696;6.186;2024-03-02T01:51:40;8.50;99.90
52543;DHT22;38449;52.696;6.186;2024-03-02T01:54:09;8.40;99.90
52543;DHT22;38449;52.696;6.186;2024-03-02T01:56:35;8.50;99.90
52543;DHT22;38449;52.696;6.186;2024-03-02T01:59:02;8.50;99.90
52543;DHT22;38449;52.696;6.186;2024-03-02T02:01:29;8.50;99.90
52543;DHT22;38449;52.696;6.186;2024-03-02T02:03:57;8.50;99.90
52543;DHT22;38449;52.696;6.186;2024-03-02T02:06:23;8.50;99.90
52543;DHT22;38449;52.696;6.186;2024-03-02T02:08:49;8.50;99.90
52543;DHT22;38449;52.696;6.186;2024-03-02T02:11:17;8.50;99.90
52543;DHT22;38449;52.696;6.186;2024-03-02T02:13:44;8.40;99.90
52543;DHT22;38449;52.696;6.186;2024-03-02T02:16:11;8.50;99.90
52543;DHT22;38449;52.696;6.186;2024-03-02T02:18:37;8.60;99.90
52543;DHT22;38449;52.696;6.186;2024-03-02T02:21:04;8.70;99.90
52543;DHT22;38449;52.696;6.186;2024-03-02T02:23:30;8.60;99.90
52543;DHT22;38449;52.696;6.186;2024-03-02T02:25:57;8.60;99.90
52543;DHT22;38449;52.696;6.186;2024-03-02T02:28:24;8.70;99.90
52543;DHT22;38449;52.696;6.186;2024-03-02T02:30:50;8.70;99.90
52543;DHT22;38449;52.696;6.186;2024-03-02T02:33:16;8.70;99.90
52543;DHT22;38449;52.696;6.186;2024-03-02T02:35:43;8.70;99.90
52543;DHT22;38449;52.696;6.186;2024-03-02T02:38:09;8.70;99.90
52543;DHT22;38449;52.696;6.186;2024-03-02T02:40:35;8.80;99.90
52543;DHT22;38449;52.696;6.186;2024-03-02T02:43:01;8.90;99.90
52543;DHT22;38449;52.696;6.186;2024-03-02T02:45:28;8.90;99.90
52543;DHT22;38449;52.696;6.186;2024-03-02T02:47:54;8.90;99.90
52543;DHT22;38449;52.696;6.186;2024-03-02T02:50:20;8.90;99.90
52543;DHT22;38449;52.696;6.186;2024-03-02T02:52:47;8.90;99.90
52543;DHT22;38449;52.696;6.186;2024-03-02T02:55:13;8.90;99.90
52543;DHT22;38449;52.696;6.186;2024-03-02T02:57:42;8.80;99.90
52543;DHT22;38449;52.696;6.186;2024-03-02T03:00:13;8.90;99.90
52543;DHT22;38449;52.696;6.186;2024-03-02T03:02:41;8.90;99.90
52543;DHT22;38449;52.696;6.186;2024-03-02T03:05:12;8.80;99.90
52543;DHT22;38449;52.696;6.186;2024-03-02T03:07:41;8.70;99.90
52543;DHT22;38449;52.696;6.186;2024-03-02T03:10:08;8.70;99.90
52543;DHT22;38449;52.696;6.186;2024-03-02T03:12:35;8.70;99.90
52543;DHT22;38449;52.696;6.186;2024-03-02T03:15:02;8.70;99.90
52543;DHT22;38449;52.696;6.186;2024-03-02T03:17:30;8.60;99.90
52543;DHT22;38449;52.696;6.186;2024-03-02T03:19:58;8.60;99.90
52543;DHT22;38449;52.696;6.186;2024-03-02T03:22:24;8.60;99.90
52543;DHT22;38449;52.696;6.186;2024-03-02T03:24:51;8.50;99.90
52543;DHT22;38449;52.696;6.186;2024-03-02T03:27:17;8.50;99.90
52543;DHT22;38449;52.696;6.186;2024-03-02T03:29:43;8.50;99.90
52543;DHT22;38449;52.696;6.186;2024-03-02T03:32:10;8.50;99.90
52543;DHT22;38449;52.696;6.186;2024-03-02T03:34:36;8.50;99.90
52543;DHT22;38449;52.696;6.186;2024-03-02T03:37:03;8.50;99.90
52543;DHT22;38449;52.696;6.186;2024-03-02T03:39:29;8.50;99.90
52543;DHT22;38449;52.696;6.186;2024-03-02T03:41:55;8.50;99.90
52543;DHT22;38449;52.696;6.186;2024-03-02T03:44:22;8.40;99.90
52543;DHT22;38449;52.696;6.186;2024-03-02T03:46:48;8.40;99.90
52543;DHT22;38449;52.696;6.186;2024-03-02T03:49:15;8.50;99.90
52543;DHT22;38449;52.696;6.186;2024-03-02T03:51:41;8.40;99.90
52543;DHT22;38449;52.696;6.186;2024-03-02T03:54:07;8.40;99.90
52543;DHT22;38449;52.696;6.186;2024-03-02T03:56:34;8.40;99.90
52543;DHT22;38449;52.696;6.186;2024-03-02T03:59:00;8.40;99.90
52543;DHT22;38449;52.696;6.186;2024-03-02T04:01:27;8.50;99.90
52543;DHT22;38449;52.696;6.186;2024-03-02T04:03:53;8.50;99.90
52543;DHT22;38449;52.696;6.186;2024-03-02T04:06:20;8.40;99.90
52543;DHT22;38449;52.696;6.186;2024-03-02T04:08:46;8.40;99.90
52543;DHT22;38449;52.696;6.186;2024-03-02T04:11:13;8.40;99.90
52543;DHT22;38449;52.696;6.186;2024-03-02T04:13:39;8.40;99.90
52543;DHT22;38449;52.696;6.186;2024-03-02T04:16:06;8.40;99.90
52543;DHT22;38449;52.696;6.186;2024-03-02T04:18:33;8.40;99.90
52543;DHT22;38449;52.696;6.186;2024-03-02T04:20:59;8.40;99.90
52543;DHT22;38449;52.696;6.186;2024-03-02T04:23:26;8.30;99.90
52543;DHT22;38449;52.696;6.186;2024-03-02T04:25:52;8.30;99.90
52543;DHT22;38449;52.696;6.186;2024-03-02T04:28:19;8.20;99.90
52543;DHT22;38449;52.696;6.186;2024-03-02T04:30:45;8.30;99.90
52543;DHT22;38449;52.696;6.186;2024-03-02T04:33:11;8.20;99.90
52543;DHT22;38449;52.696;6.186;2024-03-02T04:35:38;8.10;99.90
52543;DHT22;38449;52.696;6.186;2024-03-02T04:38:04;8.10;99.90
52543;DHT22;38449;52.696;6.186;2024-03-02T04:40:30;8.10;99.90
52543;DHT22;38449;52.696;6.186;2024-03-02T04:42:58;8.00;99.90
52543;DHT22;38449;52.696;6.186;2024-03-02T04:45:25;8.00;99.90
52543;DHT22;38449;52.696;6.186;2024-03-02T04:47:51;8.00;99.90
52543;DHT22;38449;52.696;6.186;2024-03-02T04:50:18;7.90;99.90
52543;DHT22;38449;52.696;6.186;2024-03-02T04:52:45;7.90;99.90
52543;DHT22;38449;52.696;6.186;2024-03-02T04:55:11;7.80;99.90
52543;DHT22;38449;52.696;6.186;2024-03-02T04:57:53;7.90;99.90
52543;DHT22;38449;52.696;6.186;2024-03-02T05:00:21;7.90;99.90
52543;DHT22;38449;52.696;6.186;2024-03-02T05:02:47;7.80;99.90
52543;DHT22;38449;52.696;6.186;2024-03-02T05:05:13;7.90;99.90
52543;DHT22;38449;52.696;6.186;2024-03-02T05:07:43;7.80;99.90
52543;DHT22;38449;52.696;6.186;2024-03-02T05:10:10;7.80;99.90
52543;DHT22;38449;52.696;6.186;2024-03-02T05:12:38;7.70;99.90
52543;DHT22;38449;52.696;6.186;2024-03-02T05:15:14;7.70;99.90
52543;DHT22;38449;52.696;6.186;2024-03-02T05:17:41;7.70;99.90
52543;DHT22;38449;52.696;6.186;2024-03-02T05:20:11;7.50;99.90
52543;DHT22;38449;52.696;6.186;2024-03-02T05:22:38;7.50;99.90
52543;DHT22;38449;52.696;6.186;2024-03-02T05:25:06;7.40;99.90
52543;DHT22;38449;52.696;6.186;2024-03-02T05:27:32;7.30;99.90
52543;DHT22;38449;52.696;6.186;2024-03-02T05:29:59;7.30;99.90
52543;DHT22;38449;52.696;6.186;2024-03-02T05:32:26;7.10;99.90
52543;DHT22;38449;52.696;6.186;2024-03-02T05:34:52;7.20;99.90
52543;DHT22;38449;52.696;6.186;2024-03-02T05:37:18;7.10;99.90
52543;DHT22;38449;52.696;6.186;2024-03-02T05:39:46;7.20;99.90
52543;DHT22;38449;52.696;6.186;2024-03-02T05:42:12;7.10;99.90
52543;DHT22;38449;52.696;6.186;2024-03-02T05:44:38;7.10;99.90
52543;DHT22;38449;52.696;6.186;2024-03-02T05:47:05;7.00;99.90
52543;DHT22;38449;52.696;6.186;2024-03-02T05:49:31;7.00;99.90
52543;DHT22;38449;52.696;6.186;2024-03-02T05:51:57;6.90;99.90
52543;DHT22;38449;52.696;6.186;2024-03-02T05:54:24;6.90;99.90
52543;DHT22;38449;52.696;6.186;2024-03-02T05:56:50;6.80;99.90
52543;DHT22;38449;52.696;6.186;2024-03-02T05:59:17;6.90;99.90
52543;DHT22;38449;52.696;6.186;2024-03-02T06:01:47;6.80;99.90
52543;DHT22;38449;52.696;6.186;2024-03-02T06:04:14;6.80;99.90
52543;DHT22;38449;52.696;6.186;2024-03-02T06:06:40;6.80;99.90
52543;DHT22;38449;52.696;6.186;2024-03-02T06:09:07;6.90;99.90
52543;DHT22;38449;52.696;6.186;2024-03-02T06:14:00;6.70;99.90
52543;DHT22;38449;52.696;6.186;2024-03-02T06:16:26;6.70;99.90
52543;DHT22;38449;52.696;6.186;2024-03-02T06:18:53;6.70;99.90
52543;DHT22;38449;52.696;6.186;2024-03-02T06:21:20;6.60;99.90
52543;DHT22;38449;52.696;6.186;2024-03-02T06:23:46;6.70;99.90
52543;DHT22;38449;52.696;6.186;2024-03-02T06:26:12;6.60;99.90
52543;DHT22;38449;52.696;6.186;2024-03-02T06:28:39;6.60;99.90
52543;DHT22;38449;52.696;6.186;2024-03-02T06:31:05;6.70;99.90
52543;DHT22;38449;52.696;6.186;2024-03-02T06:33:31;6.60;99.90
52543;DHT22;38449;52.696;6.186;2024-03-02T06:35:58;6.60;99.90
52543;DHT22;38449;52.696;6.186;2024-03-02T06:38:24;6.60;99.90
52543;DHT22;38449;52.696;6.186;2024-03-02T06:40:51;6.40;99.90
52543;DHT22;38449;52.696;6.186;2024-03-02T06:43:17;6.60;99.90
52543;DHT22;38449;52.696;6.186;2024-03-02T06:45:43;6.50;99.90
52543;DHT22;38449;52.696;6.186;2024-03-02T06:48:10;6.60;99.90
52543;DHT22;38449;52.696;6.186;2024-03-02T06:50:36;6.40;99.90
52543;DHT22;38449;52.696;6.186;2024-03-02T06:53:02;6.50;99.90
52543;DHT22;38449;52.696;6.186;2024-03-02T06:55:30;6.50;99.90
52543;DHT22;38449;52.696;6.186;2024-03-02T06:57:57;6.60;99.90
52543;DHT22;38449;52.696;6.186;2024-03-02T07:00:23;6.70;99.90
52543;DHT22;38449;52.696;6.186;2024-03-02T07:02:50;6.60;99.90
52543;DHT22;38449;52.696;6.186;2024-03-02T07:05:16;6.60;99.90
52543;DHT22;38449;52.696;6.186;2024-03-02T07:07:42;6.70;99.90
52543;DHT22;38449;52.696;6.186;2024-03-02T07:10:09;6.70;99.90
52543;DHT22;38449;52.696;6.186;2024-03-02T07:12:35;6.70;99.90
52543;DHT22;38449;52.696;6.186;2024-03-02T07:15:03;6.80;99.90
52543;DHT22;38449;52.696;6.186;2024-03-02T07:17:30;6.80;99.90
52543;DHT22;38449;52.696;6.186;2024-03-02T07:19:57;6.80;99.90
52543;DHT22;38449;52.696;6.186;2024-03-02T07:22:23;6.80;99.90
52543;DHT22;38449;52.696;6.186;2024-03-02T07:24:49;7.00;99.90
52543;DHT22;38449;52.696;6.186;2024-03-02T07:27:17;7.00;99.90
52543;DHT22;38449;52.696;6.186;2024-03-02T07:29:43;7.10;99.90
52543;DHT22;38449;52.696;6.186;2024-03-02T07:32:10;7.20;99.90
52543;DHT22;38449;52.696;6.186;2024-03-02T07:34:37;7.30;99.90
52543;DHT22;38449;52.696;6.186;2024-03-02T07:37:04;7.20;99.90
52543;DHT22;38449;52.696;6.186;2024-03-02T07:39:30;7.30;99.90
52543;DHT22;38449;52.696;6.186;2024-03-02T07:41:56;7.50;99.90
52543;DHT22;38449;52.696;6.186;2024-03-02T07:44:24;7.60;99.90
52543;DHT22;38449;52.696;6.186;2024-03-02T07:46:50;7.70;99.90
52543;DHT22;38449;52.696;6.186;2024-03-02T07:49:17;7.70;99.90
52543;DHT22;38449;52.696;6.186;2024-03-02T07:51:44;7.90;99.90
52543;DHT22;38449;52.696;6.186;2024-03-02T07:54:10;8.10;99.90
52543;DHT22;38449;52.696;6.186;2024-03-02T07:56:37;8.20;99.90
52543;DHT22;38449;52.696;6.186;2024-03-02T07:59:04;8.20;99.90
52543;DHT22;38449;52.696;6.186;2024-03-02T08:01:31;8.20;99.90
52543;DHT22;38449;52.696;6.186;2024-03-02T08:03:58;8.30;99.90
52543;DHT22;38449;52.696;6.186;2024-03-02T08:06:26;8.30;99.90
52543;DHT22;38449;52.696;6.186;2024-03-02T08:09:00;8.50;99.90
52543;DHT22;38449;52.696;6.186;2024-03-02T08:11:27;8.60;99.90
52543;DHT22;38449;52.696;6.186;2024-03-02T08:13:53;8.60;99.90
52543;DHT22;38449;52.696;6.186;2024-03-02T08:16:23;8.70;99.90
52543;DHT22;38449;52.696;6.186;2024-03-02T08:18:51;8.80;99.90
52543;DHT22;38449;52.696;6.186;2024-03-02T08:21:18;8.80;99.90
52543;DHT22;38449;52.696;6.186;2024-03-02T08:23:44;8.90;99.90
52543;DHT22;38449;52.696;6.186;2024-03-02T08:26:11;9.00;99.90
52543;DHT22;38449;52.696;6.186;2024-03-02T08:28:38;9.10;99.90
52543;DHT22;38449;52.696;6.186;2024-03-02T08:31:07;9.10;99.90
52543;DHT22;38449;52.696;6.186;2024-03-02T08:33:33;9.20;99.90
52543;DHT22;38449;52.696;6.186;2024-03-02T08:36:00;9.30;99.90
52543;DHT22;38449;52.696;6.186;2024-03-02T08:38:26;9.30;99.90
52543;DHT22;38449;52.696;6.186;2024-03-02T08:40:54;9.40;99.90
52543;DHT22;38449;52.696;6.186;2024-03-02T08:43:20;9.50;99.90
52543;DHT22;38449;52.696;6.186;2024-03-02T08:45:48;9.50;99.90
52543;DHT22;38449;52.696;6.186;2024-03-02T08:48:15;9.60;99.90
52543;DHT22;38449;52.696;6.186;2024-03-02T08:50:41;9.70;99.90
52543;DHT22;38449;52.696;6.186;2024-03-02T08:53:07;9.60;99.90
52543;DHT22;38449;52.696;6.186;2024-03-02T08:55:35;9.60;99.90
52543;DHT22;38449;52.696;6.186;2024-03-02T08:58:01;9.60;99.90
52543;DHT22;38449;52.696;6.186;2024-03-02T09:00:28;9.50;99.90
52543;DHT22;38449;52.696;6.186;2024-03-02T09:02:54;9.50;99.90
52543;DHT22;38449;52.696;6.186;2024-03-02T09:05:21;9.50;99.90
52543;DHT22;38449;52.696;6.186;2024-03-02T09:07:47;9.40;99.90
52543;DHT22;38449;52.696;6.186;2024-03-02T09:10:14;9.60;99.90
52543;DHT22;38449;52.696;6.186;2024-03-02T09:12:40;9.60;99.90
52543;DHT22;38449;52.696;6.186;2024-03-02T09:15:07;9.80;99.90
52543;DHT22;38449;52.696;6.186;2024-03-02T09:17:34;9.90;99.90
52543;DHT22;38449;52.696;6.186;2024-03-02T09:20:00;10.10;99.90
52543;DHT22;38449;52.696;6.186;2024-03-02T09:22:26;10.20;99.90
52543;DHT22;38449;52.696;6.186;2024-03-02T09:24:53;10.40;99.90
52543;DHT22;38449;52.696;6.186;2024-03-02T09:27:19;10.50;99.90
52543;DHT22;38449;52.696;6.186;2024-03-02T09:29:45;10.60;99.90
52543;DHT22;38449;52.696;6.186;2024-03-02T09:32:14;10.70;99.90
52543;DHT22;38449;52.696;6.186;2024-03-02T09:34:41;10.80;99.90
52543;DHT22;38449;52.696;6.186;2024-03-02T09:37:08;10.80;99.90
52543;DHT22;38449;52.696;6.186;2024-03-02T09:39:35;10.90;99.90
52543;DHT22;38449;52.696;6.186;2024-03-02T09:42:01;10.90;99.90
52543;DHT22;38449;52.696;6.186;2024-03-02T09:44:29;10.90;99.90
52543;DHT22;38449;52.696;6.186;2024-03-02T09:46:56;11.00;99.90
52543;DHT22;38449;52.696;6.186;2024-03-02T09:49:22;10.90;99.90
52543;DHT22;38449;52.696;6.186;2024-03-02T09:51:49;10.80;99.90
52543;DHT22;38449;52.696;6.186;2024-03-02T09:54:16;10.80;99.90
52543;DHT22;38449;52.696;6.186;2024-03-02T09:56:43;10.70;99.90
52543;DHT22;38449;52.696;6.186;2024-03-02T09:59:10;10.80;99.90
52543;DHT22;38449;52.696;6.186;2024-03-02T10:01:37;11.00;99.90
52543;DHT22;38449;52.696;6.186;2024-03-02T10:04:05;11.00;99.90
52543;DHT22;38449;52.696;6.186;2024-03-02T10:06:31;11.10;99.90
52543;DHT22;38449;52.696;6.186;2024-03-02T10:08:58;11.20;99.90
52543;DHT22;38449;52.696;6.186;2024-03-02T10:11:35;11.30;99.90
52543;DHT22;38449;52.696;6.186;2024-03-02T10:14:07;11.20;99.90
52543;DHT22;38449;52.696;6.186;2024-03-02T10:16:35;11.20;99.90
52543;DHT22;38449;52.696;6.186;2024-03-02T10:19:22;11.20;99.90
52543;DHT22;38449;52.696;6.186;2024-03-02T10:21:53;11.20;99.90
52543;DHT22;38449;52.696;6.186;2024-03-02T10:24:21;11.30;99.90
52543;DHT22;38449;52.696;6.186;2024-03-02T10:26:48;11.30;99.90
52543;DHT22;38449;52.696;6.186;2024-03-02T10:29:16;11.40;99.90
52543;DHT22;38449;52.696;6.186;2024-03-02T10:31:46;11.50;99.90
52543;DHT22;38449;52.696;6.186;2024-03-02T10:34:13;11.50;99.90
52543;DHT22;38449;52.696;6.186;2024-03-02T10:36:43;11.60;99.90
52543;DHT22;38449;52.696;6.186;2024-03-02T10:39:11;11.70;99.90
52543;DHT22;38449;52.696;6.186;2024-03-02T10:41:38;11.70;99.90
52543;DHT22;38449;52.696;6.186;2024-03-02T10:44:07;11.70;99.90
52543;DHT22;38449;52.696;6.186;2024-03-02T10:46:35;11.70;99.90
52543;DHT22;38449;52.696;6.186;2024-03-02T10:49:03;11.80;99.90
52543;DHT22;38449;52.696;6.186;2024-03-02T10:51:32;11.90;99.90
52543;DHT22;38449;52.696;6.186;2024-03-02T10:53:59;12.00;99.90
52543;DHT22;38449;52.696;6.186;2024-03-02T10:56:39;11.90;99.90
52543;DHT22;38449;52.696;6.186;2024-03-02T10:59:37;11.90;99.90
52543;DHT22;38449;52.696;6.186;2024-03-02T11:02:06;11.80;99.90
52543;DHT22;38449;52.696;6.186;2024-03-02T11:04:37;12.00;99.90
52543;DHT22;38449;52.696;6.186;2024-03-02T11:07:07;12.10;99.90
52543;DHT22;38449;52.696;6.186;2024-03-02T11:09:35;12.10;99.90
52543;DHT22;38449;52.696;6.186;2024-03-02T11:12:23;12.10;99.90
52543;DHT22;38449;52.696;6.186;2024-03-02T11:14:51;12.10;99.90
52543;DHT22;38449;52.696;6.186;2024-03-02T11:17:20;12.20;99.90
52543;DHT22;38449;52.696;6.186;2024-03-02T11:19:49;12.10;99.90
52543;DHT22;38449;52.696;6.186;2024-03-02T11:22:16;12.10;99.90
52543;DHT22;38449;52.696;6.186;2024-03-02T11:24:50;12.20;99.90
52543;DHT22;38449;52.696;6.186;2024-03-02T11:35:28;12.20;99.90
52543;DHT22;38449;52.696;6.186;2024-03-02T11:37:54;12.20;99.90
52543;DHT22;38449;52.696;6.186;2024-03-02T11:40:25;12.20;99.90
52543;DHT22;38449;52.696;6.186;2024-03-02T11:42:51;12.30;99.90
52543;DHT22;38449;52.696;6.186;2024-03-02T11:45:27;12.20;99.90
52543;DHT22;38449;52.696;6.186;2024-03-02T11:47:55;12.30;99.90
52543;DHT22;38449;52.696;6.186;2024-03-02T11:50:46;12.30;99.90
52543;DHT22;38449;52.696;6.186;2024-03-02T11:53:13;12.30;99.90
52543;DHT22;38449;52.696;6.186;2024-03-02T11:55:40;12.30;99.90
52543;DHT22;38449;52.696;6.186;2024-03-02T11:58:07;12.40;99.90
52543;DHT22;38449;52.696;6.186;2024-03-02T12:00:34;12.30;99.90
52543;DHT22;38449;52.696;6.186;2024-03-02T12:03:09;12.50;99.90
52543;DHT22;38449;52.696;6.186;2024-03-02T12:05:37;12.60;99.90
52543;DHT22;38449;52.696;6.186;2024-03-02T12:08:04;12.70;99.90
52543;DHT22;38449;52.696;6.186;2024-03-02T12:10:34;12.90;99.90
52543;DHT22;38449;52.696;6.186;2024-03-02T12:13:02;12.90;99.90
52543;DHT22;38449;52.696;6.186;2024-03-02T12:15:30;13.20;99.90
52543;DHT22;38449;52.696;6.186;2024-03-02T12:18:00;13.10;99.90
52543;DHT22;38449;52.696;6.186;2024-03-02T12:20:27;13.00;99.90
52543;DHT22;38449;52.696;6.186;2024-03-02T12:23:02;13.00;99.90
52543;DHT22;38449;52.696;6.186;2024-03-02T12:25:31;13.00;99.90
52543;DHT22;38449;52.696;6.186;2024-03-02T12:28:00;13.10;99.90
52543;DHT22;38449;52.696;6.186;2024-03-02T12:30:29;13.30;99.90
52543;DHT22;38449;52.696;6.186;2024-03-02T12:32:56;13.20;99.90
52543;DHT22;38449;52.696;6.186;2024-03-02T12:35:25;13.10;99.90
52543;DHT22;38449;52.696;6.186;2024-03-02T12:37:53;13.20;99.90
52543;DHT22;38449;52.696;6.186;2024-03-02T12:40:21;13.10;99.90
52543;DHT22;38449;52.696;6.186;2024-03-02T12:42:49;13.30;99.90
52543;DHT22;38449;52.696;6.186;2024-03-02T12:45:16;13.50;99.90
52543;DHT22;38449;52.696;6.186;2024-03-02T12:47:50;13.40;99.90
52543;DHT22;38449;52.696;6.186;2024-03-02T12:50:17;13.40;99.90
52543;DHT22;38449;52.696;6.186;2024-03-02T12:52:50;13.30;99.90
52543;DHT22;38449;52.696;6.186;2024-03-02T12:55:17;13.40;99.90
52543;DHT22;38449;52.696;6.186;2024-03-02T12:57:44;13.30;99.90
52543;DHT22;38449;52.696;6.186;2024-03-02T13:00:10;13.30;99.90
52543;DHT22;38449;52.696;6.186;2024-03-02T13:02:42;13.30;99.90
52543;DHT22;38449;52.696;6.186;2024-03-02T13:05:10;13.30;99.90
52543;DHT22;38449;52.696;6.186;2024-03-02T13:07:37;13.20;99.90
52543;DHT22;38449;52.696;6.186;2024-03-02T13:10:05;13.30;99.90
52543;DHT22;38449;52.696;6.186;2024-03-02T13:12:35;13.30;99.90
52543;DHT22;38449;52.696;6.186;2024-03-02T13:15:02;13.20;99.90
52543;DHT22;38449;52.696;6.186;2024-03-02T13:17:30;13.30;99.90
52543;DHT22;38449;52.696;6.186;2024-03-02T13:19:59;13.40;99.90
52543;DHT22;38449;52.696;6.186;2024-03-02T13:22:26;13.50;99.90
52543;DHT22;38449;52.696;6.186;2024-03-02T13:24:56;13.40;99.90
52543;DHT22;38449;52.696;6.186;2024-03-02T13:27:25;13.30;99.90
52543;DHT22;38449;52.696;6.186;2024-03-02T13:29:51;13.30;99.90
52543;DHT22;38449;52.696;6.186;2024-03-02T13:32:21;13.30;99.90
52543;DHT22;38449;52.696;6.186;2024-03-02T13:34:51;13.30;99.90
52543;DHT22;38449;52.696;6.186;2024-03-02T13:37:17;13.20;99.90
52543;DHT22;38449;52.696;6.186;2024-03-02T13:39:44;13.00;99.90
52543;DHT22;38449;52.696;6.186;2024-03-02T13:42:10;12.90;99.90
52543;DHT22;38449;52.696;6.186;2024-03-02T13:44:38;12.90;99.90
52543;DHT22;38449;52.696;6.186;2024-03-02T13:47:07;12.80;99.90
52543;DHT22;38449;52.696;6.186;2024-03-02T13:49:33;12.90;99.90
52543;DHT22;38449;52.696;6.186;2024-03-02T13:52:06;12.90;99.90
52543;DHT22;38449;52.696;6.186;2024-03-02T13:54:45;12.90;99.90
52543;DHT22;38449;52.696;6.186;2024-03-02T13:57:11;12.90;99.90
52543;DHT22;38449;52.696;6.186;2024-03-02T13:59:38;13.00;99.90
52543;DHT22;38449;52.696;6.186;2024-03-02T14:02:05;13.20;99.90
52543;DHT22;38449;52.696;6.186;2024-03-02T14:04:33;13.10;99.90
52543;DHT22;38449;52.696;6.186;2024-03-02T14:07:00;13.10;99.90
52543;DHT22;38449;52.696;6.186;2024-03-02T14:09:26;13.10;99.90
52543;DHT22;38449;52.696;6.186;2024-03-02T14:11:54;13.10;99.90
52543;DHT22;38449;52.696;6.186;2024-03-02T14:14:21;13.10;99.90
52543;DHT22;38449;52.696;6.186;2024-03-02T14:16:47;13.10;99.90
52543;DHT22;38449;52.696;6.186;2024-03-02T14:19:14;13.10;99.90
52543;DHT22;38449;52.696;6.186;2024-03-02T14:21:40;13.10;99.90
52543;DHT22;38449;52.696;6.186;2024-03-02T14:24:08;13.20;99.90
52543;DHT22;38449;52.696;6.186;2024-03-02T14:26:36;13.30;99.90
52543;DHT22;38449;52.696;6.186;2024-03-02T14:29:03;13.20;99.90
52543;DHT22;38449;52.696;6.186;2024-03-02T14:31:31;13.20;99.90
52543;DHT22;38449;52.696;6.186;2024-03-02T14:33:58;13.30;99.90
52543;DHT22;38449;52.696;6.186;2024-03-02T14:36:24;13.20;99.90
52543;DHT22;38449;52.696;6.186;2024-03-02T14:38:51;13.20;99.90
52543;DHT22;38449;52.696;6.186;2024-03-02T14:41:21;13.20;99.90
52543;DHT22;38449;52.696;6.186;2024-03-02T14:43:50;13.30;99.90
52543;DHT22;38449;52.696;6.186;2024-03-02T14:46:17;13.30;99.90
52543;DHT22;38449;52.696;6.186;2024-03-02T14:48:46;13.40;99.90
52543;DHT22;38449;52.696;6.186;2024-03-02T14:51:13;13.40;99.90
52543;DHT22;38449;52.696;6.186;2024-03-02T14:53:39;13.40;99.90
52543;DHT22;38449;52.696;6.186;2024-03-02T14:56:06;13.40;99.90
52543;DHT22;38449;52.696;6.186;2024-03-02T14:58:33;13.40;99.90
52543;DHT22;38449;52.696;6.186;2024-03-02T15:01:01;13.40;99.90
52543;DHT22;38449;52.696;6.186;2024-03-02T15:03:28;13.40;99.90
52543;DHT22;38449;52.696;6.186;2024-03-02T15:05:54;13.40;99.90
52543;DHT22;38449;52.696;6.186;2024-03-02T15:08:23;13.30;99.90
52543;DHT22;38449;52.696;6.186;2024-03-02T15:10:49;13.30;99.90
52543;DHT22;38449;52.696;6.186;2024-03-02T15:13:16;13.30;99.90
52543;DHT22;38449;52.696;6.186;2024-03-02T15:15:43;13.30;99.90
52543;DHT22;38449;52.696;6.186;2024-03-02T15:18:09;13.30;99.90
52543;DHT22;38449;52.696;6.186;2024-03-02T15:20:37;13.30;99.90
52543;DHT22;38449;52.696;6.186;2024-03-02T15:23:03;13.30;99.90
52543;DHT22;38449;52.696;6.186;2024-03-02T15:25:29;13.40;99.90
52543;DHT22;38449;52.696;6.186;2024-03-02T15:27:56;13.40;99.90
52543;DHT22;38449;52.696;6.186;2024-03-02T15:30:24;13.40;99.90
52543;DHT22;38449;52.696;6.186;2024-03-02T15:32:50;13.40;99.90
52543;DHT22;38449;52.696;6.186;2024-03-02T15:35:17;13.40;99.90
52543;DHT22;38449;52.696;6.186;2024-03-02T15:37:44;13.50;99.90
52543;DHT22;38449;52.696;6.186;2024-03-02T15:40:11;13.60;99.90
52543;DHT22;38449;52.696;6.186;2024-03-02T15:42:38;13.60;99.90
52543;DHT22;38449;52.696;6.186;2024-03-02T15:45:05;13.50;99.90
52543;DHT22;38449;52.696;6.186;2024-03-02T15:47:34;13.50;99.90
52543;DHT22;38449;52.696;6.186;2024-03-02T15:50:02;13.40;99.90
52543;DHT22;38449;52.696;6.186;2024-03-02T15:52:30;13.30;99.90
52543;DHT22;38449;52.696;6.186;2024-03-02T15:54:58;13.40;99.90